sensor_id;sensor_type;location;lat;lon;timestamp;P1;durP1;ratioP1;P2;durP2;ratioP2
69716;SDS011;65362;46.144;19.666;2023-01-04T00:01:18;34.30;;;21.77;;
69716;SDS011;65362;46.144;19.666;2023-01-04T00:03:47;34.30;;;21.65;;
69716;SDS011;65362;46.144;19.666;2023-01-04T00:06:15;35.67;;;22.00;;
69716;SDS011;65362;46.144;19.666;2023-01-04T00:08:43;35.97;;;23.27;;
69716;SDS011;65362;46.144;19.666;2023-01-04T00:11:12;34.70;;;22.55;;
69716;SDS011;65362;46.144;19.666;2023-01-04T00:13:44;36.05;;;22.50;;
69716;SDS011;65362;46.144;19.666;2023-01-04T00:16:17;40.60;;;24.40;;
69716;SDS011;65362;46.144;19.666;2023-01-04T00:18:47;34.47;;;22.77;;
69716;SDS011;65362;46.144;19.666;2023-01-04T00:21:22;36.58;;;23.75;;
69716;SDS011;65362;46.144;19.666;2023-01-04T00:23:53;39.20;;;24.08;;
69716;SDS011;65362;46.144;19.666;2023-01-04T00:26:22;36.42;;;23.92;;
69716;SDS011;65362;46.144;19.666;2023-01-04T00:28:52;35.28;;;23.25;;
69716;SDS011;65362;46.144;19.666;2023-01-04T00:31:21;36.10;;;23.70;;
69716;SDS011;65362;46.144;19.666;2023-01-04T00:33:49;37.58;;;24.35;;
69716;SDS011;65362;46.144;19.666;2023-01-04T00:36:19;38.13;;;24.15;;
69716;SDS011;65362;46.144;19.666;2023-01-04T00:38:47;39.38;;;24.42;;
69716;SDS011;65362;46.144;19.666;2023-01-04T00:44:27;37.38;;;22.75;;
69716;SDS011;65362;46.144;19.666;2023-01-04T00:46:56;40.60;;;23.88;;
69716;SDS011;65362;46.144;19.666;2023-01-04T00:49:24;34.13;;;22.92;;
69716;SDS011;65362;46.144;19.666;2023-01-04T00:51:53;36.17;;;23.40;;
69716;SDS011;65362;46.144;19.666;2023-01-04T00:54:21;35.28;;;22.33;;
69716;SDS011;65362;46.144;19.666;2023-01-04T00:56:48;37.40;;;24.42;;
69716;SDS011;65362;46.144;19.666;2023-01-04T00:59:17;37.22;;;24.05;;
69716;SDS011;65362;46.144;19.666;2023-01-04T01:01:46;37.30;;;23.80;;
69716;SDS011;65362;46.144;19.666;2023-01-04T01:04:15;34.20;;;23.27;;
69716;SDS011;65362;46.144;19.666;2023-01-04T01:06:45;38.83;;;25.02;;
69716;SDS011;65362;46.144;19.666;2023-01-04T01:09:13;35.42;;;23.88;;
69716;SDS011;65362;46.144;19.666;2023-01-04T01:11:41;36.63;;;22.77;;
69716;SDS011;65362;46.144;19.666;2023-01-04T01:14:12;35.85;;;23.00;;
69716;SDS011;65362;46.144;19.666;2023-01-04T01:16:43;36.95;;;23.55;;
69716;SDS011;65362;46.144;19.666;2023-01-04T01:19:22;36.67;;;23.88;;
69716;SDS011;65362;46.144;19.666;2023-01-04T01:21:50;35.15;;;23.48;;
69716;SDS011;65362;46.144;19.666;2023-01-04T01:24:18;35.28;;;23.27;;
69716;SDS011;65362;46.144;19.666;2023-01-04T01:26:45;40.33;;;23.83;;
69716;SDS011;65362;46.144;19.666;2023-01-04T01:29:13;32.70;;;22.33;;
69716;SDS011;65362;46.144;19.666;2023-01-04T01:31:40;31.65;;;21.52;;
69716;SDS011;65362;46.144;19.666;2023-01-04T01:34:08;31.50;;;20.75;;
69716;SDS011;65362;46.144;19.666;2023-01-04T01:36:35;31.58;;;21.15;;
69716;SDS011;65362;46.144;19.666;2023-01-04T01:39:04;32.30;;;21.27;;
69716;SDS011;65362;46.144;19.666;2023-01-04T01:41:32;30.42;;;21.15;;
69716;SDS011;65362;46.144;19.666;2023-01-04T01:51:55;32.85;;;21.17;;
69716;SDS011;65362;46.144;19.666;2023-01-04T01:54:25;28.80;;;20.00;;
69716;SDS011;65362;46.144;19.666;2023-01-04T01:56:58;28.15;;;20.52;;
69716;SDS011;65362;46.144;19.666;2023-01-04T01:59:28;27.75;;;19.00;;
69716;SDS011;65362;46.144;19.666;2023-01-04T02:01:57;28.40;;;19.35;;
69716;SDS011;65362;46.144;19.666;2023-01-04T02:04:25;27.55;;;19.13;;
69716;SDS011;65362;46.144;19.666;2023-01-04T02:06:53;28.73;;;19.60;;
69716;SDS011;65362;46.144;19.666;2023-01-04T02:09:24;24.02;;;18.00;;
69716;SDS011;65362;46.144;19.666;2023-01-04T02:11:52;25.15;;;19.27;;
69716;SDS011;65362;46.144;19.666;2023-01-04T02:14:19;24.98;;;18.42;;
69716;SDS011;65362;46.144;19.666;2023-01-04T02:17:12;26.52;;;18.15;;
69716;SDS011;65362;46.144;19.666;2023-01-04T02:45:43;21.45;;;15.75;;
69716;SDS011;65362;46.144;19.666;2023-01-04T02:48:15;19.85;;;14.93;;
69716;SDS011;65362;46.144;19.666;2023-01-04T02:51:01;20.33;;;14.85;;
69716;SDS011;65362;46.144;19.666;2023-01-04T02:53:30;21.05;;;15.00;;
69716;SDS011;65362;46.144;19.666;2023-01-04T02:59:07;21.88;;;13.95;;
69716;SDS011;65362;46.144;19.666;2023-01-04T03:01:59;18.92;;;13.77;;
69716;SDS011;65362;46.144;19.666;2023-01-04T03:05:03;18.33;;;13.43;;
69716;SDS011;65362;46.144;19.666;2023-01-04T03:08:11;17.63;;;13.57;;
69716;SDS011;65362;46.144;19.666;2023-01-04T03:11:07;17.35;;;12.95;;
69716;SDS011;65362;46.144;19.666;2023-01-04T03:17:07;17.90;;;13.18;;
69716;SDS011;65362;46.144;19.666;2023-01-04T03:19:39;16.92;;;12.23;;
69716;SDS011;65362;46.144;19.666;2023-01-04T03:22:18;16.35;;;12.40;;
69716;SDS011;65362;46.144;19.666;2023-01-04T03:25:08;15.85;;;12.38;;
69716;SDS011;65362;46.144;19.666;2023-01-04T03:27:57;16.85;;;13.10;;
69716;SDS011;65362;46.144;19.666;2023-01-04T03:30:56;16.77;;;11.93;;
69716;SDS011;65362;46.144;19.666;2023-01-04T03:33:47;15.90;;;11.93;;
69716;SDS011;65362;46.144;19.666;2023-01-04T03:36:42;13.90;;;11.10;;
69716;SDS011;65362;46.144;19.666;2023-01-04T03:45:12;14.15;;;10.40;;
69716;SDS011;65362;46.144;19.666;2023-01-04T03:48:07;12.73;;;10.10;;
69716;SDS011;65362;46.144;19.666;2023-01-04T03:51:09;13.60;;;10.30;;
69716;SDS011;65362;46.144;19.666;2023-01-04T03:54:01;15.18;;;10.68;;
69716;SDS011;65362;46.144;19.666;2023-01-04T03:56:32;12.85;;;9.90;;
69716;SDS011;65362;46.144;19.666;2023-01-04T03:59:03;12.40;;;9.50;;
69716;SDS011;65362;46.144;19.666;2023-01-04T04:01:31;12.50;;;9.77;;
69716;SDS011;65362;46.144;19.666;2023-01-04T04:03:59;11.98;;;9.52;;
69716;SDS011;65362;46.144;19.666;2023-01-04T04:06:45;10.82;;;9.23;;
69716;SDS011;65362;46.144;19.666;2023-01-04T04:09:31;11.88;;;9.65;;
69716;SDS011;65362;46.144;19.666;2023-01-04T04:11:59;12.68;;;9.63;;
69716;SDS011;65362;46.144;19.666;2023-01-04T04:14:26;13.02;;;9.38;;
69716;SDS011;65362;46.144;19.666;2023-01-04T04:16:54;11.60;;;9.00;;
69716;SDS011;65362;46.144;19.666;2023-01-04T04:19:21;11.70;;;8.68;;
69716;SDS011;65362;46.144;19.666;2023-01-04T04:21:49;10.27;;;8.82;;
69716;SDS011;65362;46.144;19.666;2023-01-04T04:24:17;11.65;;;8.77;;
69716;SDS011;65362;46.144;19.666;2023-01-04T04:26:47;10.18;;;8.32;;
69716;SDS011;65362;46.144;19.666;2023-01-04T04:29:15;10.88;;;7.88;;
69716;SDS011;65362;46.144;19.666;2023-01-04T04:31:42;11.48;;;8.85;;
69716;SDS011;65362;46.144;19.666;2023-01-04T04:34:10;10.68;;;7.85;;
69716;SDS011;65362;46.144;19.666;2023-01-04T04:36:38;11.02;;;8.98;;
69716;SDS011;65362;46.144;19.666;2023-01-04T04:39:05;9.93;;;7.35;;
69716;SDS011;65362;46.144;19.666;2023-01-04T04:41:33;10.25;;;7.95;;
69716;SDS011;65362;46.144;19.666;2023-01-04T04:44:08;9.95;;;7.22;;
69716;SDS011;65362;46.144;19.666;2023-01-04T04:46:45;9.70;;;7.72;;
69716;SDS011;65362;46.144;19.666;2023-01-04T04:49:14;9.15;;;7.45;;
69716;SDS011;65362;46.144;19.666;2023-01-04T04:51:42;8.30;;;6.80;;
69716;SDS011;65362;46.144;19.666;2023-01-04T04:54:12;9.55;;;6.88;;
69716;SDS011;65362;46.144;19.666;2023-01-04T04:56:42;8.85;;;6.47;;
69716;SDS011;65362;46.144;19.666;2023-01-04T04:59:09;11.70;;;7.22;;
69716;SDS011;65362;46.144;19.666;2023-01-04T05:01:36;7.90;;;6.43;;
69716;SDS011;65362;46.144;19.666;2023-01-04T05:04:04;7.78;;;6.40;;
69716;SDS011;65362;46.144;19.666;2023-01-04T05:06:32;7.93;;;6.32;;
69716;SDS011;65362;46.144;19.666;2023-01-04T05:09:00;8.40;;;6.75;;
69716;SDS011;65362;46.144;19.666;2023-01-04T05:11:27;8.40;;;6.18;;
69716;SDS011;65362;46.144;19.666;2023-01-04T05:14:13;7.28;;;5.93;;
69716;SDS011;65362;46.144;19.666;2023-01-04T05:16:41;7.60;;;5.80;;
69716;SDS011;65362;46.144;19.666;2023-01-04T05:19:08;7.38;;;6.03;;
69716;SDS011;65362;46.144;19.666;2023-01-04T05:21:36;7.78;;;6.10;;
69716;SDS011;65362;46.144;19.666;2023-01-04T05:24:03;6.88;;;5.70;;
69716;SDS011;65362;46.144;19.666;2023-01-04T05:26:31;7.90;;;5.50;;
69716;SDS011;65362;46.144;19.666;2023-01-04T05:28:58;5.63;;;4.68;;
69716;SDS011;65362;46.144;19.666;2023-01-04T05:31:25;7.20;;;5.70;;
69716;SDS011;65362;46.144;19.666;2023-01-04T05:33:53;6.47;;;5.22;;
69716;SDS011;65362;46.144;19.666;2023-01-04T05:36:20;7.75;;;5.57;;
69716;SDS011;65362;46.144;19.666;2023-01-04T05:38:47;6.47;;;5.40;;
69716;SDS011;65362;46.144;19.666;2023-01-04T05:41:15;5.88;;;5.20;;
69716;SDS011;65362;46.144;19.666;2023-01-04T05:44:01;5.88;;;4.95;;
69716;SDS011;65362;46.144;19.666;2023-01-04T05:46:28;5.25;;;4.72;;
69716;SDS011;65362;46.144;19.666;2023-01-04T05:48:55;6.15;;;5.20;;
69716;SDS011;65362;46.144;19.666;2023-01-04T05:51:23;7.13;;;5.38;;
69716;SDS011;65362;46.144;19.666;2023-01-04T05:53:50;5.72;;;4.68;;
69716;SDS011;65362;46.144;19.666;2023-01-04T05:56:18;5.32;;;4.82;;
69716;SDS011;65362;46.144;19.666;2023-01-04T05:58:45;5.35;;;4.40;;
69716;SDS011;65362;46.144;19.666;2023-01-04T06:01:12;5.55;;;4.57;;
69716;SDS011;65362;46.144;19.666;2023-01-04T06:03:40;5.38;;;4.50;;
69716;SDS011;65362;46.144;19.666;2023-01-04T06:06:07;6.45;;;4.90;;
69716;SDS011;65362;46.144;19.666;2023-01-04T06:08:35;5.85;;;4.40;;
69716;SDS011;65362;46.144;19.666;2023-01-04T06:11:03;5.88;;;4.82;;
69716;SDS011;65362;46.144;19.666;2023-01-04T06:13:30;4.88;;;4.32;;
69716;SDS011;65362;46.144;19.666;2023-01-04T06:15:58;5.95;;;4.28;;
69716;SDS011;65362;46.144;19.666;2023-01-04T06:18:25;5.30;;;4.40;;
69716;SDS011;65362;46.144;19.666;2023-01-04T06:20:52;5.00;;;3.97;;
69716;SDS011;65362;46.144;19.666;2023-01-04T06:23:20;4.90;;;4.07;;
69716;SDS011;65362;46.144;19.666;2023-01-04T06:25:47;4.47;;;3.85;;
69716;SDS011;65362;46.144;19.666;2023-01-04T06:28:14;5.43;;;3.88;;
69716;SDS011;65362;46.144;19.666;2023-01-04T06:30:42;5.47;;;4.00;;
69716;SDS011;65362;46.144;19.666;2023-01-04T06:33:09;4.30;;;3.90;;
69716;SDS011;65362;46.144;19.666;2023-01-04T06:35:36;5.18;;;4.30;;
69716;SDS011;65362;46.144;19.666;2023-01-04T06:38:04;4.60;;;3.72;;
69716;SDS011;65362;46.144;19.666;2023-01-04T06:40:31;4.70;;;4.20;;
69716;SDS011;65362;46.144;19.666;2023-01-04T06:42:59;4.50;;;3.78;;
69716;SDS011;65362;46.144;19.666;2023-01-04T06:45:26;4.57;;;3.80;;
69716;SDS011;65362;46.144;19.666;2023-01-04T06:47:53;5.05;;;4.13;;
69716;SDS011;65362;46.144;19.666;2023-01-04T06:50:21;5.05;;;3.90;;
69716;SDS011;65362;46.144;19.666;2023-01-04T06:52:48;4.70;;;3.42;;
69716;SDS011;65362;46.144;19.666;2023-01-04T06:55:15;5.13;;;4.10;;
69716;SDS011;65362;46.144;19.666;2023-01-04T06:57:43;4.88;;;3.80;;
69716;SDS011;65362;46.144;19.666;2023-01-04T07:00:11;7.35;;;3.75;;
69716;SDS011;65362;46.144;19.666;2023-01-04T07:02:39;4.20;;;3.65;;
69716;SDS011;65362;46.144;19.666;2023-01-04T07:05:26;4.28;;;3.47;;
69716;SDS011;65362;46.144;19.666;2023-01-04T07:07:53;4.32;;;3.70;;
69716;SDS011;65362;46.144;19.666;2023-01-04T07:10:21;4.22;;;3.80;;
69716;SDS011;65362;46.144;19.666;2023-01-04T07:12:48;4.07;;;3.67;;
69716;SDS011;65362;46.144;19.666;2023-01-04T07:15:16;4.13;;;3.70;;
69716;SDS011;65362;46.144;19.666;2023-01-04T07:18:03;4.50;;;3.72;;
69716;SDS011;65362;46.144;19.666;2023-01-04T07:20:31;4.25;;;3.75;;
69716;SDS011;65362;46.144;19.666;2023-01-04T07:22:58;3.90;;;3.53;;
69716;SDS011;65362;46.144;19.666;2023-01-04T07:25:25;4.70;;;3.85;;
69716;SDS011;65362;46.144;19.666;2023-01-04T07:27:53;5.25;;;3.95;;
69716;SDS011;65362;46.144;19.666;2023-01-04T07:30:21;4.03;;;3.58;;
69716;SDS011;65362;46.144;19.666;2023-01-04T07:32:51;4.07;;;3.65;;
69716;SDS011;65362;46.144;19.666;2023-01-04T07:35:19;4.45;;;3.67;;
69716;SDS011;65362;46.144;19.666;2023-01-04T07:37:47;4.15;;;3.58;;
69716;SDS011;65362;46.144;19.666;2023-01-04T07:40:23;4.40;;;3.83;;
69716;SDS011;65362;46.144;19.666;2023-01-04T07:42:55;4.40;;;3.78;;
69716;SDS011;65362;46.144;19.666;2023-01-04T07:45:23;7.35;;;3.92;;
69716;SDS011;65362;46.144;19.666;2023-01-04T07:47:52;5.15;;;4.10;;
69716;SDS011;65362;46.144;19.666;2023-01-04T07:50:20;4.10;;;3.70;;
69716;SDS011;65362;46.144;19.666;2023-01-04T07:52:47;3.95;;;3.55;;
69716;SDS011;65362;46.144;19.666;2023-01-04T07:55:15;4.65;;;4.10;;
69716;SDS011;65362;46.144;19.666;2023-01-04T07:57:42;4.90;;;4.00;;
69716;SDS011;65362;46.144;19.666;2023-01-04T08:00:09;5.05;;;4.30;;
69716;SDS011;65362;46.144;19.666;2023-01-04T08:02:37;4.45;;;3.80;;
69716;SDS011;65362;46.144;19.666;2023-01-04T08:05:05;4.40;;;3.97;;
69716;SDS011;65362;46.144;19.666;2023-01-04T08:07:33;5.28;;;3.90;;
69716;SDS011;65362;46.144;19.666;2023-01-04T08:10:00;5.90;;;3.95;;
69716;SDS011;65362;46.144;19.666;2023-01-04T08:12:28;5.90;;;3.95;;
69716;SDS011;65362;46.144;19.666;2023-01-04T08:14:55;4.35;;;3.70;;
69716;SDS011;65362;46.144;19.666;2023-01-04T08:17:22;4.43;;;3.30;;
69716;SDS011;65362;46.144;19.666;2023-01-04T08:19:50;4.63;;;3.70;;
69716;SDS011;65362;46.144;19.666;2023-01-04T08:22:17;9.70;;;4.20;;
69716;SDS011;65362;46.144;19.666;2023-01-04T08:24:45;6.45;;;3.60;;
69716;SDS011;65362;46.144;19.666;2023-01-04T08:27:12;6.22;;;3.67;;
69716;SDS011;65362;46.144;19.666;2023-01-04T08:29:40;4.22;;;3.83;;
69716;SDS011;65362;46.144;19.666;2023-01-04T08:32:07;7.75;;;3.78;;
69716;SDS011;65362;46.144;19.666;2023-01-04T08:34:34;5.70;;;3.92;;
69716;SDS011;65362;46.144;19.666;2023-01-04T08:37:02;4.88;;;3.90;;
69716;SDS011;65362;46.144;19.666;2023-01-04T08:39:29;4.88;;;3.42;;
69716;SDS011;65362;46.144;19.666;2023-01-04T08:42:01;8.88;;;3.80;;
69716;SDS011;65362;46.144;19.666;2023-01-04T08:44:46;4.47;;;3.65;;
69716;SDS011;65362;46.144;19.666;2023-01-04T08:47:13;5.07;;;3.72;;
69716;SDS011;65362;46.144;19.666;2023-01-04T08:49:41;5.97;;;4.60;;
69716;SDS011;65362;46.144;19.666;2023-01-04T08:52:08;5.55;;;4.00;;
69716;SDS011;65362;46.144;19.666;2023-01-04T08:54:37;4.97;;;4.07;;
69716;SDS011;65362;46.144;19.666;2023-01-04T08:57:05;6.55;;;4.10;;
69716;SDS011;65362;46.144;19.666;2023-01-04T08:59:32;5.57;;;4.30;;
69716;SDS011;65362;46.144;19.666;2023-01-04T09:02:00;6.47;;;4.13;;
69716;SDS011;65362;46.144;19.666;2023-01-04T09:04:32;5.43;;;4.40;;
69716;SDS011;65362;46.144;19.666;2023-01-04T09:06:59;4.70;;;3.53;;
69716;SDS011;65362;46.144;19.666;2023-01-04T09:09:27;4.10;;;3.50;;
69716;SDS011;65362;46.144;19.666;2023-01-04T09:11:56;5.88;;;4.38;;
69716;SDS011;65362;46.144;19.666;2023-01-04T09:14:23;7.90;;;3.95;;
69716;SDS011;65362;46.144;19.666;2023-01-04T09:16:50;4.18;;;3.78;;
69716;SDS011;65362;46.144;19.666;2023-01-04T09:19:18;6.80;;;4.53;;
69716;SDS011;65362;46.144;19.666;2023-01-04T09:21:48;5.30;;;4.40;;
69716;SDS011;65362;46.144;19.666;2023-01-04T09:24:16;4.90;;;4.28;;
69716;SDS011;65362;46.144;19.666;2023-01-04T09:26:44;5.28;;;4.45;;
69716;SDS011;65362;46.144;19.666;2023-01-04T09:29:13;9.25;;;4.50;;
69716;SDS011;65362;46.144;19.666;2023-01-04T09:31:42;11.25;;;4.20;;
69716;SDS011;65362;46.144;19.666;2023-01-04T09:34:12;5.18;;;4.10;;
69716;SDS011;65362;46.144;19.666;2023-01-04T09:36:45;4.97;;;3.92;;
69716;SDS011;65362;46.144;19.666;2023-01-04T09:39:13;5.60;;;4.07;;
69716;SDS011;65362;46.144;19.666;2023-01-04T09:41:59;4.87;;;4.17;;
69716;SDS011;65362;46.144;19.666;2023-01-04T09:47:26;5.47;;;3.80;;
69716;SDS011;65362;46.144;19.666;2023-01-04T09:50:12;5.00;;;3.90;;
69716;SDS011;65362;46.144;19.666;2023-01-04T09:53:07;5.90;;;3.95;;
69716;SDS011;65362;46.144;19.666;2023-01-04T09:55:47;4.60;;;3.78;;
69716;SDS011;65362;46.144;19.666;2023-01-04T09:58:26;4.30;;;3.65;;
69716;SDS011;65362;46.144;19.666;2023-01-04T10:01:02;4.97;;;3.90;;
69716;SDS011;65362;46.144;19.666;2023-01-04T10:03:33;4.05;;;3.55;;
69716;SDS011;65362;46.144;19.666;2023-01-04T10:06:05;4.57;;;3.58;;
69716;SDS011;65362;46.144;19.666;2023-01-04T10:08:36;4.43;;;3.67;;
69716;SDS011;65362;46.144;19.666;2023-01-04T10:11:06;5.07;;;3.45;;
69716;SDS011;65362;46.144;19.666;2023-01-04T10:20:08;3.70;;;3.15;;
69716;SDS011;65362;46.144;19.666;2023-01-04T10:26:06;4.35;;;3.45;;
69716;SDS011;65362;46.144;19.666;2023-01-04T10:36:49;3.45;;;2.95;;
69716;SDS011;65362;46.144;19.666;2023-01-04T10:39:22;3.40;;;2.80;;
69716;SDS011;65362;46.144;19.666;2023-01-04T10:41:59;3.65;;;3.15;;
69716;SDS011;65362;46.144;19.666;2023-01-04T10:47:22;4.60;;;3.22;;
69716;SDS011;65362;46.144;19.666;2023-01-04T10:50:17;3.72;;;3.13;;
69716;SDS011;65362;46.144;19.666;2023-01-04T10:52:59;3.00;;;2.70;;
69716;SDS011;65362;46.144;19.666;2023-01-04T10:55:44;3.63;;;2.97;;
69716;SDS011;65362;46.144;19.666;2023-01-04T10:58:42;4.43;;;2.90;;
69716;SDS011;65362;46.144;19.666;2023-01-04T11:01:20;3.22;;;2.67;;
69716;SDS011;65362;46.144;19.666;2023-01-04T11:04:17;3.35;;;2.60;;
69716;SDS011;65362;46.144;19.666;2023-01-04T11:06:55;2.95;;;2.60;;
69716;SDS011;65362;46.144;19.666;2023-01-04T11:09:32;5.57;;;2.60;;
69716;SDS011;65362;46.144;19.666;2023-01-04T11:12:07;2.95;;;2.50;;
69716;SDS011;65362;46.144;19.666;2023-01-04T11:14:37;3.05;;;2.45;;
69716;SDS011;65362;46.144;19.666;2023-01-04T11:17:05;3.58;;;2.40;;
69716;SDS011;65362;46.144;19.666;2023-01-04T11:19:36;3.42;;;2.75;;
69716;SDS011;65362;46.144;19.666;2023-01-04T11:22:16;2.83;;;2.53;;
69716;SDS011;65362;46.144;19.666;2023-01-04T11:24:52;3.28;;;2.53;;
69716;SDS011;65362;46.144;19.666;2023-01-04T11:27:45;2.53;;;2.33;;
69716;SDS011;65362;46.144;19.666;2023-01-04T11:30:24;3.78;;;2.40;;
69716;SDS011;65362;46.144;19.666;2023-01-04T11:35:42;2.50;;;2.22;;
69716;SDS011;65362;46.144;19.666;2023-01-04T11:38:12;2.67;;;2.28;;
69716;SDS011;65362;46.144;19.666;2023-01-04T11:40:40;3.35;;;2.55;;
69716;SDS011;65362;46.144;19.666;2023-01-04T11:43:16;3.63;;;2.42;;
69716;SDS011;65362;46.144;19.666;2023-01-04T11:45:51;2.53;;;2.33;;
69716;SDS011;65362;46.144;19.666;2023-01-04T11:48:43;3.10;;;2.30;;
69716;SDS011;65362;46.144;19.666;2023-01-04T11:56:56;2.90;;;2.50;;
69716;SDS011;65362;46.144;19.666;2023-01-04T11:59:26;2.45;;;2.25;;
69716;SDS011;65362;46.144;19.666;2023-01-04T12:02:36;2.35;;;2.15;;
69716;SDS011;65362;46.144;19.666;2023-01-04T12:05:15;3.75;;;2.45;;
69716;SDS011;65362;46.144;19.666;2023-01-04T12:07:55;2.90;;;2.25;;
69716;SDS011;65362;46.144;19.666;2023-01-04T12:10:23;2.45;;;2.25;;
69716;SDS011;65362;46.144;19.666;2023-01-04T12:12:54;2.30;;;2.10;;
69716;SDS011;65362;46.144;19.666;2023-01-04T12:15:25;2.70;;;2.30;;
69716;SDS011;65362;46.144;19.666;2023-01-04T12:18:01;2.50;;;2.27;;
69716;SDS011;65362;46.144;19.666;2023-01-04T12:20:43;2.50;;;2.30;;
69716;SDS011;65362;46.144;19.666;2023-01-04T12:23:11;2.38;;;2.15;;
69716;SDS011;65362;46.144;19.666;2023-01-04T12:25:40;3.10;;;2.60;;
69716;SDS011;65362;46.144;19.666;2023-01-04T12:33:51;2.40;;;2.10;;
69716;SDS011;65362;46.144;19.666;2023-01-04T12:57:45;2.10;;;1.90;;
69716;SDS011;65362;46.144;19.666;2023-01-04T13:00:13;2.50;;;2.30;;
69716;SDS011;65362;46.144;19.666;2023-01-04T13:02:42;2.22;;;1.88;;
69716;SDS011;65362;46.144;19.666;2023-01-04T13:08:27;2.30;;;2.10;;
69716;SDS011;65362;46.144;19.666;2023-01-04T13:11:00;2.40;;;1.85;;
69716;SDS011;65362;46.144;19.666;2023-01-04T13:18:40;2.25;;;2.05;;
69716;SDS011;65362;46.144;19.666;2023-01-04T13:23:54;2.30;;;2.10;;
69716;SDS011;65362;46.144;19.666;2023-01-04T13:29:38;2.17;;;1.98;;
69716;SDS011;65362;46.144;19.666;2023-01-04T13:32:03;2.88;;;2.17;;
69716;SDS011;65362;46.144;19.666;2023-01-04T13:34:51;3.95;;;2.03;;
69716;SDS011;65362;46.144;19.666;2023-01-04T13:37:27;2.63;;;2.22;;
69716;SDS011;65362;46.144;19.666;2023-01-04T13:40:40;2.85;;;2.22;;
69716;SDS011;65362;46.144;19.666;2023-01-04T13:42:55;2.50;;;1.90;;
69716;SDS011;65362;46.144;19.666;2023-01-04T13:45:53;2.70;;;2.10;;
69716;SDS011;65362;46.144;19.666;2023-01-04T13:48:35;2.17;;;2.00;;
69716;SDS011;65362;46.144;19.666;2023-01-04T13:51:24;1.95;;;1.73;;
69716;SDS011;65362;46.144;19.666;2023-01-04T13:54:03;3.63;;;1.90;;
69716;SDS011;65362;46.144;19.666;2023-01-04T13:56:43;2.10;;;1.90;;
69716;SDS011;65362;46.144;19.666;2023-01-04T13:59:17;2.38;;;1.90;;
69716;SDS011;65362;46.144;19.666;2023-01-04T14:01:46;3.33;;;2.20;;
69716;SDS011;65362;46.144;19.666;2023-01-04T14:04:24;2.15;;;1.92;;
69716;SDS011;65362;46.144;19.666;2023-01-04T14:06:54;2.17;;;1.80;;
69716;SDS011;65362;46.144;19.666;2023-01-04T14:09:24;2.10;;;1.90;;
69716;SDS011;65362;46.144;19.666;2023-01-04T14:11:59;3.30;;;2.05;;
69716;SDS011;65362;46.144;19.666;2023-01-04T14:14:39;3.85;;;1.80;;
69716;SDS011;65362;46.144;19.666;2023-01-04T14:17:34;3.47;;;2.08;;
69716;SDS011;65362;46.144;19.666;2023-01-04T14:30:52;2.30;;;1.70;;
69716;SDS011;65362;46.144;19.666;2023-01-04T14:36:10;2.28;;;1.77;;
69716;SDS011;65362;46.144;19.666;2023-01-04T14:41:24;3.38;;;2.10;;
69716;SDS011;65362;46.144;19.666;2023-01-04T14:46:26;1.88;;;1.73;;
69716;SDS011;65362;46.144;19.666;2023-01-04T14:48:55;2.10;;;1.90;;
69716;SDS011;65362;46.144;19.666;2023-01-04T14:51:25;3.70;;;1.77;;
69716;SDS011;65362;46.144;19.666;2023-01-04T14:54:00;2.30;;;2.10;;
69716;SDS011;65362;46.144;19.666;2023-01-04T14:56:27;2.40;;;1.95;;
69716;SDS011;65362;46.144;19.666;2023-01-04T14:58:55;2.70;;;2.13;;
69716;SDS011;65362;46.144;19.666;2023-01-04T15:01:22;2.67;;;2.00;;
69716;SDS011;65362;46.144;19.666;2023-01-04T15:03:50;3.28;;;2.03;;
69716;SDS011;65362;46.144;19.666;2023-01-04T15:06:17;2.92;;;2.10;;
69716;SDS011;65362;46.144;19.666;2023-01-04T15:08:45;3.63;;;2.30;;
69716;SDS011;65362;46.144;19.666;2023-01-04T15:11:12;3.97;;;2.30;;
69716;SDS011;65362;46.144;19.666;2023-01-04T15:13:41;2.67;;;2.15;;
69716;SDS011;65362;46.144;19.666;2023-01-04T15:16:11;2.67;;;2.17;;
69716;SDS011;65362;46.144;19.666;2023-01-04T15:18:39;2.35;;;2.10;;
69716;SDS011;65362;46.144;19.666;2023-01-04T15:21:07;3.13;;;2.70;;
69716;SDS011;65362;46.144;19.666;2023-01-04T15:23:35;4.72;;;2.55;;
69716;SDS011;65362;46.144;19.666;2023-01-04T15:26:04;3.05;;;2.53;;
69716;SDS011;65362;46.144;19.666;2023-01-04T15:28:32;4.05;;;2.65;;
69716;SDS011;65362;46.144;19.666;2023-01-04T15:31:04;3.00;;;2.70;;
69716;SDS011;65362;46.144;19.666;2023-01-04T15:33:40;4.25;;;2.80;;
69716;SDS011;65362;46.144;19.666;2023-01-04T15:36:14;3.58;;;2.88;;
69716;SDS011;65362;46.144;19.666;2023-01-04T15:38:52;3.88;;;3.47;;
69716;SDS011;65362;46.144;19.666;2023-01-04T15:41:21;5.75;;;3.25;;
69716;SDS011;65362;46.144;19.666;2023-01-04T15:44:08;5.25;;;3.67;;
69716;SDS011;65362;46.144;19.666;2023-01-04T15:46:37;4.18;;;3.70;;
69716;SDS011;65362;46.144;19.666;2023-01-04T15:49:05;5.13;;;3.75;;
69716;SDS011;65362;46.144;19.666;2023-01-04T15:51:37;5.50;;;4.20;;
69716;SDS011;65362;46.144;19.666;2023-01-04T15:54:05;6.72;;;5.45;;
69716;SDS011;65362;46.144;19.666;2023-01-04T15:56:32;7.88;;;5.75;;
69716;SDS011;65362;46.144;19.666;2023-01-04T15:58:59;9.02;;;6.75;;
69716;SDS011;65362;46.144;19.666;2023-01-04T16:01:27;15.40;;;10.00;;
69716;SDS011;65362;46.144;19.666;2023-01-04T16:03:55;22.35;;;13.63;;
69716;SDS011;65362;46.144;19.666;2023-01-04T16:06:22;26.50;;;16.65;;
69716;SDS011;65362;46.144;19.666;2023-01-04T16:08:50;27.25;;;18.27;;
69716;SDS011;65362;46.144;19.666;2023-01-04T16:11:20;25.00;;;16.50;;
69716;SDS011;65362;46.144;19.666;2023-01-04T16:13:50;25.63;;;17.15;;
69716;SDS011;65362;46.144;19.666;2023-01-04T16:16:19;28.10;;;18.42;;
69716;SDS011;65362;46.144;19.666;2023-01-04T16:18:49;30.42;;;18.83;;
69716;SDS011;65362;46.144;19.666;2023-01-04T16:21:21;29.50;;;19.83;;
69716;SDS011;65362;46.144;19.666;2023-01-04T16:23:54;27.65;;;18.25;;
69716;SDS011;65362;46.144;19.666;2023-01-04T16:26:35;29.08;;;20.70;;
69716;SDS011;65362;46.144;19.666;2023-01-04T16:29:03;32.08;;;21.52;;
69716;SDS011;65362;46.144;19.666;2023-01-04T16:31:31;32.90;;;21.52;;
69716;SDS011;65362;46.144;19.666;2023-01-04T16:34:00;33.78;;;22.35;;
69716;SDS011;65362;46.144;19.666;2023-01-04T16:36:27;36.78;;;24.42;;
69716;SDS011;65362;46.144;19.666;2023-01-04T16:38:55;38.28;;;24.75;;
69716;SDS011;65362;46.144;19.666;2023-01-04T16:41:23;36.90;;;23.90;;
69716;SDS011;65362;46.144;19.666;2023-01-04T16:43:51;36.58;;;24.85;;
69716;SDS011;65362;46.144;19.666;2023-01-04T16:51:26;40.38;;;27.15;;
69716;SDS011;65362;46.144;19.666;2023-01-04T16:53:55;40.63;;;26.25;;
69716;SDS011;65362;46.144;19.666;2023-01-04T16:56:23;42.30;;;25.67;;
69716;SDS011;65362;46.144;19.666;2023-01-04T16:58:51;39.22;;;26.27;;
69716;SDS011;65362;46.144;19.666;2023-01-04T17:01:20;41.65;;;27.85;;
69716;SDS011;65362;46.144;19.666;2023-01-04T17:03:53;43.25;;;28.45;;
69716;SDS011;65362;46.144;19.666;2023-01-04T17:06:24;41.35;;;27.20;;
69716;SDS011;65362;46.144;19.666;2023-01-04T17:08:53;43.92;;;27.50;;
69716;SDS011;65362;46.144;19.666;2023-01-04T17:11:23;43.78;;;28.30;;
69716;SDS011;65362;46.144;19.666;2023-01-04T17:14:12;49.47;;;29.67;;
69716;SDS011;65362;46.144;19.666;2023-01-04T17:16:39;44.95;;;28.48;;
69716;SDS011;65362;46.144;19.666;2023-01-04T17:19:08;44.20;;;29.60;;
69716;SDS011;65362;46.144;19.666;2023-01-04T17:21:35;47.65;;;30.60;;